Quick Links (Output Below):   Max & Min Temps   /   Climate Reports   /   Zone Forecasts
River Forecasts   /   Forestry Forecasts   /   Aviation Forecasts   /   Radars   /   Features

Terminal Aerodrome Forecast (Arkadelphia)

Pick a Site:
Arkadelphia | El Dorado | Fayetteville | Fort Smith | Harrison | Highfill | Hot Springs | Jonesboro
Little Rock | Monticello | Mountain Home | Pine Bluff | Texarkana
 Forecast 

KADF 011956Z 0120/0218 15005KT P6SM VCSH SCT025 BKN050
     FM020000 15005KT P6SM SCT015 BKN040
     FM020800 17003KT 6SM BR OVC015
      TEMPO 0214/0218 4SM BR OVC007=


 Latest METARs (Observations) 
How to Decode METARs
22Z KADF 012156Z AUTO 19008KT 10SM CLR 32/22 A2980 RMK AO2 T03160222
         SLP103
         
21Z KADF 012056Z AUTO 21006KT 10SM FEW038 32/23 A2981 RMK AO2 56022
         T03160227 SLP106
         
20Z KADF 011956Z AUTO 20009KT 10SM CLR 32/23 A2982 RMK AO2 T03160227
         SLP112
         
19Z KADF 011856Z AUTO 19007KT 160V230 10SM FEW031 31/23 A2984 RMK AO2
         T03110233 SLP118
         
18Z KADF 011756Z AUTO 19006KT 10SM FEW029 SCT034 SCT042 29/23 A2988
         RMK AO2 58003 60062 T02880233 10294 20211 SLP131
         
17Z KADF 011656Z AUTO 18006KT 10SM CLR 29/24 A2989 RMK AO2 T02880238
         SLP135
         
16Z KADF 011556Z AUTO 18005KT 10SM FEW012 28/24 A2990 RMK AO2
         T02770238 RAE1457 SLP139
         
15Z KADF 011456Z AUTO 25004KT 10SM -RA FEW034 SCT050 SCT065 23/21
         A2989 RMK AO2 51008 60062 T02270205 TSE24 P0005 SLP133
         
14Z KADF 011356Z AUTO 16010KT 1/2SM +TSRA FG BKN002 BKN011 OVC029
         23/22 A2988 RMK AO2 T02270216 CIG 002V008 TSE42B48RAB18 P0057
         SLP132
         
13Z KADF 011256Z AUTO 19004KT 6SM VCTS BR FEW027 21/21 A2988 RMK AO2
         T02110211 LTG DSNT E AND S TSB47 SLP132
         
***** Today's Observations (Above) *****


Back to Main Page
http://www.srh.noaa.gov/lzk/qfcst.php

USA.gov is the U.S. government's official web portal to all federal, state and local government web resources and services.